Time;durP1;ratioP1;P1;durP2;ratioP2;P2;SDS_P1;SDS_P2;PMS_P1;PMS_P2;Temp;Humidity;BMP_temperature;BMP_pressure;BME280_temperature;BME280_humidity;BME280_pressure;Samples;Min_cycle;Max_cycle;Signal;HPM_P1;HPM_P2
2023/01/12 00:02:22;;;;;;;22.10;2.80;;;;;;;;;;5095275;28;20102;-65
2023/01/12 00:04:48;;;;;;;17.67;3.47;;;;;;;;;;5093710;28;20032;-62
2023/01/12 00:07:14;;;;;;;21.20;2.78;;;;;;;;;;5094824;28;20055;-62
2023/01/12 00:09:40;;;;;;;14.23;2.42;;;;;;;;;;5095034;28;20043;-63
2023/01/12 00:12:07;;;;;;;16.52;2.63;;;;;;;;;;5093902;28;20012;-62
2023/01/12 00:14:33;;;;;;;13.98;3.05;;;;;;;;;;5093738;28;20026;-62
2023/01/12 00:16:58;;;;;;;21.60;2.88;;;;;;;;;;5093482;28;20021;-63
2023/01/12 00:19:24;;;;;;;24.58;3.85;;;;;;;;;;5094777;28;20038;-63
2023/01/12 00:22:12;;;;;;;15.75;2.40;;;;;;;;;;5093728;28;20024;-62
2023/01/12 00:24:42;;;;;;;23.30;3.72;;;;;;;;;;5094541;28;20192;-62
2023/01/12 00:27:09;;;;;;;9.35;2.05;;;;;;;;;;5093284;28;20480;-62
2023/01/12 00:29:35;;;;;;;17.85;2.63;;;;;;;;;;5094837;28;20038;-62
2023/01/12 00:32:01;;;;;;;14.32;3.03;;;;;;;;;;5093043;28;20395;-62
2023/01/12 00:34:27;;;;;;;13.43;2.90;;;;;;;;;;5094719;28;20016;-63
2023/01/12 00:36:52;;;;;;;20.50;4.43;;;;;;;;;;5093396;28;20411;-62
2023/01/12 00:39:18;;;;;;;16.80;4.10;;;;;;;;;;5094276;28;20099;-62
2023/01/12 00:47:12;;;;;;;15.55;2.47;;;;;;;;;;5094318;28;20027;-63
2023/01/12 00:49:39;;;;;;;15.65;3.72;;;;;;;;;;5094347;28;20393;-63
2023/01/12 00:52:05;;;;;;;12.38;2.97;;;;;;;;;;5094404;28;20020;-64
2023/01/12 00:54:31;;;;;;;22.45;2.55;;;;;;;;;;5095075;28;20047;-63
2023/01/12 00:56:57;;;;;;;20.52;3.25;;;;;;;;;;5093164;28;20044;-64
2023/01/12 00:59:22;;;;;;;17.05;4.07;;;;;;;;;;5094118;28;20416;-64
2023/01/12 01:01:48;;;;;;;14.63;2.45;;;;;;;;;;5094303;28;20512;-62
2023/01/12 01:04:13;;;;;;;20.52;3.35;;;;;;;;;;5094211;28;20032;-62
2023/01/12 01:06:39;;;;;;;12.55;2.45;;;;;;;;;;5092492;28;20127;-63
2023/01/12 01:09:04;;;;;;;17.77;2.33;;;;;;;;;;5092470;28;20047;-63
2023/01/12 01:11:30;;;;;;;15.25;2.42;;;;;;;;;;5093998;28;20034;-62
2023/01/12 01:13:57;;;;;;;20.25;4.43;;;;;;;;;;5093823;28;20353;-63
2023/01/12 01:16:23;;;;;;;17.70;3.33;;;;;;;;;;5093966;28;20483;-63
2023/01/12 01:18:48;;;;;;;22.08;2.83;;;;;;;;;;5093651;28;20016;-63
2023/01/12 01:21:14;;;;;;;18.70;4.18;;;;;;;;;;5092191;28;20016;-63
2023/01/12 01:23:40;;;;;;;16.05;2.75;;;;;;;;;;5092773;28;20028;-63
2023/01/12 01:26:07;;;;;;;17.60;3.20;;;;;;;;;;5092488;28;20024;-63
2023/01/12 01:28:33;;;;;;;19.00;3.60;;;;;;;;;;5092159;28;20058;-63
2023/01/12 01:31:09;;;;;;;20.63;2.97;;;;;;;;;;5093841;28;20051;-63
2023/01/12 01:33:35;;;;;;;20.48;3.28;;;;;;;;;;5093444;28;20020;-64
2023/01/12 01:36:02;;;;;;;20.02;2.80;;;;;;;;;;5092221;28;20362;-64
2023/01/12 01:38:27;;;;;;;12.15;2.60;;;;;;;;;;5093398;28;20008;-63
2023/01/12 01:40:52;;;;;;;24.05;3.22;;;;;;;;;;5091787;28;20063;-63
2023/01/12 01:43:19;;;;;;;17.00;4.15;;;;;;;;;;5092270;28;20126;-63
2023/01/12 01:45:46;;;;;;;22.02;4.13;;;;;;;;;;5091868;28;20473;-63
2023/01/12 01:48:13;;;;;;;20.08;2.75;;;;;;;;;;5093491;28;20024;-63
2023/01/12 01:50:41;;;;;;;18.75;2.75;;;;;;;;;;5093023;28;20095;-63
2023/01/12 01:53:10;;;;;;;19.52;2.83;;;;;;;;;;5092719;28;20430;-63
2023/01/12 01:55:48;;;;;;;21.42;3.35;;;;;;;;;;5093307;28;20018;-63
2023/01/12 01:58:17;;;;;;;17.45;3.80;;;;;;;;;;5091617;28;20030;-64
2023/01/12 02:00:43;;;;;;;19.08;4.50;;;;;;;;;;5091876;28;20035;-62
2023/01/12 02:03:10;;;;;;;21.95;3.78;;;;;;;;;;5091811;28;20016;-63
2023/01/12 02:05:36;;;;;;;19.67;3.80;;;;;;;;;;5093205;28;20073;-63
2023/01/12 02:08:13;;;;;;;18.45;3.50;;;;;;;;;;5091501;28;20047;-63
2023/01/12 02:10:39;;;;;;;19.42;4.40;;;;;;;;;;5093204;28;20024;-63
2023/01/12 02:18:52;;;;;;;27.63;3.22;;;;;;;;;;5093074;28;20030;-62
2023/01/12 02:21:20;;;;;;;16.77;3.95;;;;;;;;;;5091284;28;20119;-63
2023/01/12 02:24:04;;;;;;;16.50;2.97;;;;;;;;;;5092560;28;20025;-63
2023/01/12 02:26:56;;;;;;;26.67;4.68;;;;;;;;;;5092544;28;20074;-64
2023/01/12 02:29:46;;;;;;;21.33;4.32;;;;;;;;;;5091414;28;20062;-62
2023/01/12 02:32:24;;;;;;;26.48;3.45;;;;;;;;;;5091128;28;20101;-63
2023/01/12 02:35:00;;;;;;;18.05;3.88;;;;;;;;;;5092487;28;20377;-62
2023/01/12 02:37:38;;;;;;;20.20;3.50;;;;;;;;;;5092979;28;20028;-63
2023/01/12 02:40:15;;;;;;;24.92;3.17;;;;;;;;;;5092752;28;20020;-63
2023/01/12 02:42:49;;;;;;;23.75;4.70;;;;;;;;;;5091083;28;20023;-63
2023/01/12 02:45:23;;;;;;;17.15;3.47;;;;;;;;;;5090639;28;20034;-63
2023/01/12 02:47:52;;;;;;;21.42;3.30;;;;;;;;;;5091049;28;20469;-62
2023/01/12 02:50:32;;;;;;;12.77;2.78;;;;;;;;;;5092175;28;20032;-64
2023/01/12 02:53:01;;;;;;;16.48;2.90;;;;;;;;;;5090737;28;20028;-63
2023/01/12 02:55:28;;;;;;;22.30;4.57;;;;;;;;;;5092139;28;20016;-63
2023/01/12 02:57:54;;;;;;;22.30;3.20;;;;;;;;;;5092130;28;20062;-63
2023/01/12 03:00:20;;;;;;;15.40;3.60;;;;;;;;;;5092445;28;20023;-63
2023/01/12 03:02:46;;;;;;;14.32;3.53;;;;;;;;;;5092343;28;20012;-63
2023/01/12 03:05:11;;;;;;;14.00;2.95;;;;;;;;;;5090589;28;20065;-63
2023/01/12 03:07:40;;;;;;;18.15;3.90;;;;;;;;;;5090785;28;20424;-63
2023/01/12 03:10:05;;;;;;;20.60;6.45;;;;;;;;;;5090614;28;20469;-63
2023/01/12 03:12:33;;;;;;;23.35;3.50;;;;;;;;;;5090661;28;20031;-64
2023/01/12 03:15:02;;;;;;;24.98;4.72;;;;;;;;;;5090703;28;20012;-63
2023/01/12 03:17:30;;;;;;;19.25;3.15;;;;;;;;;;5092176;28;20526;-65
2023/01/12 03:19:57;;;;;;;19.27;3.58;;;;;;;;;;5090784;28;20324;-64
2023/01/12 03:22:23;;;;;;;17.90;3.55;;;;;;;;;;5090989;28;20027;-63
2023/01/12 03:24:57;;;;;;;24.42;3.70;;;;;;;;;;5091782;28;20023;-63
2023/01/12 03:27:32;;;;;;;24.98;4.18;;;;;;;;;;5091929;28;20020;-63
2023/01/12 03:30:02;;;;;;;17.33;3.30;;;;;;;;;;5090721;28;20030;-63
2023/01/12 03:32:28;;;;;;;18.58;3.45;;;;;;;;;;5090627;28;20469;-63
2023/01/12 03:34:53;;;;;;;24.77;3.75;;;;;;;;;;5091996;28;20077;-64
2023/01/12 03:37:26;;;;;;;22.95;3.97;;;;;;;;;;5091581;28;20062;-63
2023/01/12 03:39:51;;;;;;;19.02;3.95;;;;;;;;;;5092030;28;20156;-63
2023/01/12 03:42:22;;;;;;;25.85;4.03;;;;;;;;;;5090591;28;20477;-63
2023/01/12 03:44:53;;;;;;;21.55;5.35;;;;;;;;;;5090519;28;20024;-63
2023/01/12 03:47:21;;;;;;;17.20;3.38;;;;;;;;;;5091654;28;20020;-64
2023/01/12 03:49:49;;;;;;;22.48;4.15;;;;;;;;;;5090467;28;20044;-63
2023/01/12 03:52:16;;;;;;;22.67;4.20;;;;;;;;;;5091669;28;20052;-63
2023/01/12 03:54:42;;;;;;;21.92;3.70;;;;;;;;;;5090743;28;20456;-63
2023/01/12 03:57:08;;;;;;;19.52;3.40;;;;;;;;;;5091479;28;20345;-63
2023/01/12 03:59:34;;;;;;;16.77;3.72;;;;;;;;;;5091654;28;20020;-63
2023/01/12 04:02:00;;;;;;;20.33;3.90;;;;;;;;;;5091589;28;20027;-64
2023/01/12 04:04:25;;;;;;;27.60;3.30;;;;;;;;;;5089922;28;20032;-63
2023/01/12 04:06:51;;;;;;;18.30;4.55;;;;;;;;;;5092312;28;20396;-63
2023/01/12 04:09:16;;;;;;;14.48;2.88;;;;;;;;;;5094916;28;20457;-62
2023/01/12 04:14:25;;;;;;;24.75;4.03;;;;;;;;;;5095401;28;20035;-63
2023/01/12 04:16:51;;;;;;;22.15;4.38;;;;;;;;;;5094966;28;20023;-63
2023/01/12 04:19:20;;;;;;;22.10;3.08;;;;;;;;;;5093878;28;20058;-62
2023/01/12 04:24:29;;;;;;;17.13;3.78;;;;;;;;;;5094919;28;20050;-62
2023/01/12 04:26:54;;;;;;;23.35;4.07;;;;;;;;;;5094922;28;20465;-63
2023/01/12 04:29:20;;;;;;;18.13;4.03;;;;;;;;;;5093238;28;20024;-64
2023/01/12 04:31:45;;;;;;;24.67;3.85;;;;;;;;;;5094854;28;20024;-63
2023/01/12 04:34:10;;;;;;;21.92;4.10;;;;;;;;;;5093538;28;20058;-63
2023/01/12 04:36:36;;;;;;;20.70;3.90;;;;;;;;;;5094674;28;20023;-63
2023/01/12 04:39:01;;;;;;;28.08;4.10;;;;;;;;;;5092862;28;20434;-63
2023/01/12 04:41:27;;;;;;;15.18;3.28;;;;;;;;;;5093399;28;20028;-63
2023/01/12 04:43:52;;;;;;;20.70;3.05;;;;;;;;;;5094387;28;20032;-63
2023/01/12 04:46:18;;;;;;;19.90;4.57;;;;;;;;;;5093074;28;20020;-63
2023/01/12 04:48:44;;;;;;;21.55;3.70;;;;;;;;;;5094365;28;20028;-63
2023/01/12 04:51:10;;;;;;;18.02;3.33;;;;;;;;;;5092867;28;20008;-63
2023/01/12 04:53:35;;;;;;;21.08;5.75;;;;;;;;;;5092651;28;20464;-64
2023/01/12 04:56:04;;;;;;;19.45;3.40;;;;;;;;;;5094703;28;20103;-63
2023/01/12 04:58:29;;;;;;;19.58;3.47;;;;;;;;;;5094324;28;20041;-63
2023/01/12 05:00:55;;;;;;;18.70;4.40;;;;;;;;;;5092485;28;20095;-64
2023/01/12 05:03:20;;;;;;;24.63;4.50;;;;;;;;;;5093958;28;20031;-63
2023/01/12 05:05:46;;;;;;;19.15;3.10;;;;;;;;;;5092614;28;20482;-64
2023/01/12 05:10:57;;;;;;;22.27;3.60;;;;;;;;;;5093962;28;20024;-65
2023/01/12 05:13:23;;;;;;;17.73;2.70;;;;;;;;;;5093573;28;20051;-62
2023/01/12 05:15:49;;;;;;;23.75;3.35;;;;;;;;;;5094408;28;20012;-63
2023/01/12 05:18:14;;;;;;;18.17;3.42;;;;;;;;;;5091123;28;20154;-63
2023/01/12 05:20:40;;;;;;;28.52;3.83;;;;;;;;;;5093586;28;20016;-63
2023/01/12 05:23:05;;;;;;;17.90;3.45;;;;;;;;;;5093685;28;20065;-63
2023/01/12 05:25:31;;;;;;;14.52;3.20;;;;;;;;;;5093417;28;20032;-63
2023/01/12 05:27:57;;;;;;;18.27;3.75;;;;;;;;;;5093325;28;20494;-63
2023/01/12 05:30:23;;;;;;;16.98;3.25;;;;;;;;;;5093591;28;20056;-63
2023/01/12 05:32:49;;;;;;;22.10;3.38;;;;;;;;;;5092222;28;20385;-64
2023/01/12 05:35:14;;;;;;;27.20;4.20;;;;;;;;;;5091599;28;20012;-63
2023/01/12 05:37:40;;;;;;;16.02;4.20;;;;;;;;;;5091832;28;20016;-63
2023/01/12 05:40:05;;;;;;;15.68;4.00;;;;;;;;;;5093117;28;20532;-63
2023/01/12 05:45:14;;;;;;;13.68;2.95;;;;;;;;;;5092721;28;20043;-63
2023/01/12 05:47:40;;;;;;;20.77;3.60;;;;;;;;;;5091752;28;20021;-63
2023/01/12 05:50:06;;;;;;;30.33;3.45;;;;;;;;;;5093014;28;20016;-63
2023/01/12 05:52:31;;;;;;;17.75;3.17;;;;;;;;;;5091459;28;20488;-63
2023/01/12 05:54:56;;;;;;;19.02;3.67;;;;;;;;;;5092597;28;20012;-63
2023/01/12 05:57:22;;;;;;;21.90;3.53;;;;;;;;;;5093372;28;20068;-63
2023/01/12 05:59:47;;;;;;;17.33;3.13;;;;;;;;;;5091506;28;20123;-65
2023/01/12 06:02:16;;;;;;;17.48;4.13;;;;;;;;;;5092515;28;20024;-64
2023/01/12 06:04:43;;;;;;;19.50;3.35;;;;;;;;;;5092264;28;20063;-65
2023/01/12 06:07:14;;;;;;;17.58;3.40;;;;;;;;;;5092416;28;20533;-64
2023/01/12 06:09:39;;;;;;;15.77;2.63;;;;;;;;;;5092782;28;20039;-67
2023/01/12 06:14:49;;;;;;;17.80;4.00;;;;;;;;;;5092590;28;20055;-63
2023/01/12 06:17:14;;;;;;;22.23;3.58;;;;;;;;;;5092130;28;20460;-63
2023/01/12 06:19:40;;;;;;;26.05;3.83;;;;;;;;;;5090780;28;20111;-64
2023/01/12 06:22:07;;;;;;;16.92;3.13;;;;;;;;;;5091790;28;20034;-64
2023/01/12 06:24:32;;;;;;;23.83;3.95;;;;;;;;;;5090826;28;20028;-65
2023/01/12 06:26:58;;;;;;;21.25;4.72;;;;;;;;;;5090790;28;20571;-64
2023/01/12 06:29:23;;;;;;;16.13;2.47;;;;;;;;;;5090366;28;20024;-64
2023/01/12 06:31:49;;;;;;;21.20;3.63;;;;;;;;;;5090685;28;20060;-65
2023/01/12 06:34:14;;;;;;;17.88;4.15;;;;;;;;;;5091380;28;20460;-65
2023/01/12 06:36:40;;;;;;;16.55;2.97;;;;;;;;;;5090069;28;20547;-66
2023/01/12 06:39:05;;;;;;;17.83;3.75;;;;;;;;;;5090095;28;20107;-65
2023/01/12 06:44:16;;;;;;;29.98;3.53;;;;;;;;;;5091272;28;20035;-66
2023/01/12 06:46:41;;;;;;;19.27;2.85;;;;;;;;;;5091673;28;20024;-66
2023/01/12 06:49:07;;;;;;;16.83;4.53;;;;;;;;;;5091069;28;20016;-66
2023/01/12 06:51:32;;;;;;;24.42;2.65;;;;;;;;;;5090934;28;20020;-66
2023/01/12 06:53:58;;;;;;;19.77;2.92;;;;;;;;;;5090942;28;20008;-65
2023/01/12 06:56:23;;;;;;;26.80;4.13;;;;;;;;;;5089691;28;20031;-64
2023/01/12 06:58:49;;;;;;;21.77;3.13;;;;;;;;;;5091132;28;20034;-66
2023/01/12 07:01:14;;;;;;;15.80;3.35;;;;;;;;;;5090714;28;20016;-65
2023/01/12 07:03:40;;;;;;;22.15;3.53;;;;;;;;;;5091027;28;20028;-65
2023/01/12 07:06:05;;;;;;;21.73;3.17;;;;;;;;;;5091516;28;20085;-66
2023/01/12 07:08:31;;;;;;;24.75;4.53;;;;;;;;;;5091447;28;20123;-66
2023/01/12 07:11:03;;;;;;;25.23;4.03;;;;;;;;;;5091329;28;20104;-67
2023/01/12 07:13:29;;;;;;;16.33;2.72;;;;;;;;;;5089844;28;20108;-66
2023/01/12 07:15:57;;;;;;;20.70;3.28;;;;;;;;;;5090515;28;20385;-66
2023/01/12 07:18:22;;;;;;;25.70;4.03;;;;;;;;;;5090828;28;20024;-67
2023/01/12 07:20:48;;;;;;;23.08;3.47;;;;;;;;;;5089516;28;20357;-65
2023/01/12 07:23:13;;;;;;;14.50;3.47;;;;;;;;;;5088860;28;20099;-67
2023/01/12 07:25:40;;;;;;;23.83;3.22;;;;;;;;;;5090399;28;20067;-66
2023/01/12 07:28:05;;;;;;;16.27;3.95;;;;;;;;;;5089666;28;20430;-66
2023/01/12 07:30:30;;;;;;;13.88;3.00;;;;;;;;;;5089362;28;20028;-67
2023/01/12 07:33:04;;;;;;;18.85;3.92;;;;;;;;;;5090620;28;20080;-74
2023/01/12 07:35:29;;;;;;;24.25;4.28;;;;;;;;;;5090946;28;20016;-66
2023/01/12 07:37:55;;;;;;;17.52;3.30;;;;;;;;;;5089190;28;20110;-67
2023/01/12 07:40:20;;;;;;;26.95;4.50;;;;;;;;;;5090761;28;20016;-66
2023/01/12 07:42:46;;;;;;;20.63;3.97;;;;;;;;;;5093398;28;20024;-66
2023/01/12 07:45:11;;;;;;;21.90;2.63;;;;;;;;;;5093202;28;20032;-66
2023/01/12 07:47:37;;;;;;;19.27;3.40;;;;;;;;;;5094857;28;20562;-66
2023/01/12 07:50:03;;;;;;;15.60;2.50;;;;;;;;;;5093681;28;20047;-66
2023/01/12 07:52:28;;;;;;;24.88;4.20;;;;;;;;;;5092810;28;20023;-66
2023/01/12 07:54:54;;;;;;;20.75;3.58;;;;;;;;;;5093335;28;20020;-66
2023/01/12 07:57:19;;;;;;;25.08;3.50;;;;;;;;;;5094111;28;20024;-66
2023/01/12 07:59:44;;;;;;;23.17;3.42;;;;;;;;;;5094875;28;20012;-67
2023/01/12 08:02:15;;;;;;;19.27;4.00;;;;;;;;;;5092439;28;20035;-66
2023/01/12 08:04:40;;;;;;;18.90;2.72;;;;;;;;;;5092934;28;20032;-65
2023/01/12 08:07:06;;;;;;;19.50;3.05;;;;;;;;;;5092460;28;20052;-66
2023/01/12 08:09:31;;;;;;;27.20;5.13;;;;;;;;;;5094832;28;20119;-66
2023/01/12 08:11:57;;;;;;;19.98;3.55;;;;;;;;;;5092868;28;20020;-66
2023/01/12 08:14:26;;;;;;;22.08;3.47;;;;;;;;;;5092754;28;20040;-67
2023/01/12 08:16:53;;;;;;;30.08;4.53;;;;;;;;;;5092810;28;20106;-67
2023/01/12 08:19:29;;;;;;;12.85;2.40;;;;;;;;;;5093415;28;20024;-67
2023/01/12 08:21:57;;;;;;;19.83;3.50;;;;;;;;;;5093342;28;20111;-67
2023/01/12 08:24:24;;;;;;;14.77;3.10;;;;;;;;;;5094130;28;20095;-67
2023/01/12 08:26:52;;;;;;;21.17;3.22;;;;;;;;;;5093655;28;20532;-68
2023/01/12 08:29:22;;;;;;;16.88;2.88;;;;;;;;;;5092164;28;20027;-66
2023/01/12 08:31:48;;;;;;;20.02;3.25;;;;;;;;;;5094168;28;20020;-67
2023/01/12 08:34:13;;;;;;;24.13;4.05;;;;;;;;;;5094132;28;20522;-66
2023/01/12 08:36:40;;;;;;;11.75;2.28;;;;;;;;;;5092762;28;20465;-68
2023/01/12 08:39:06;;;;;;;22.40;2.75;;;;;;;;;;5093676;28;20027;-67
2023/01/12 08:41:31;;;;;;;17.92;3.67;;;;;;;;;;5091793;28;20106;-68
2023/01/12 08:44:09;;;;;;;21.02;2.78;;;;;;;;;;5092782;28;20361;-66
2023/01/12 08:46:35;;;;;;;25.63;4.22;;;;;;;;;;5094157;28;20959;-68
2023/01/12 08:49:01;;;;;;;23.20;4.07;;;;;;;;;;5092078;28;20047;-69
2023/01/12 08:51:27;;;;;;;18.45;3.15;;;;;;;;;;5093983;28;20469;-70
2023/01/12 08:53:53;;;;;;;28.05;3.53;;;;;;;;;;5093282;28;20511;-68
2023/01/12 08:56:18;;;;;;;21.83;4.30;;;;;;;;;;5092389;28;20024;-68
2023/01/12 08:58:44;;;;;;;15.48;2.47;;;;;;;;;;5092687;28;20038;-69
2023/01/12 09:01:10;;;;;;;17.83;3.95;;;;;;;;;;5093686;28;20016;-68
2023/01/12 09:03:37;;;;;;;13.93;2.03;;;;;;;;;;5093576;28;20380;-70
2023/01/12 09:06:28;;;;;;;12.20;2.40;;;;;;;;;;5093685;28;20040;-69
2023/01/12 09:09:01;;;;;;;14.60;2.85;;;;;;;;;;5088343;28;20047;-67
2023/01/12 09:11:28;;;;;;;9.57;1.98;;;;;;;;;;5092264;28;20028;-68
2023/01/12 09:13:55;;;;;;;21.45;5.28;;;;;;;;;;5092248;28;20047;-68
2023/01/12 09:16:20;;;;;;;15.32;2.53;;;;;;;;;;5092094;28;20015;-69
2023/01/12 09:18:46;;;;;;;19.17;3.95;;;;;;;;;;5093448;28;20372;-70
2023/01/12 09:21:16;;;;;;;17.63;1.92;;;;;;;;;;5093078;28;20093;-69
2023/01/12 09:23:42;;;;;;;19.33;2.55;;;;;;;;;;5093161;28;20043;-69
2023/01/12 09:26:09;;;;;;;13.70;2.00;;;;;;;;;;5091759;28;20101;-69
2023/01/12 09:28:35;;;;;;;21.52;4.88;;;;;;;;;;5092880;28;20489;-72
2023/01/12 09:31:01;;;;;;;7.07;1.20;;;;;;;;;;5091214;28;20101;-71
2023/01/12 09:33:26;;;;;;;8.50;1.58;;;;;;;;;;5093023;28;20082;-70
2023/01/12 09:35:52;;;;;;;7.65;1.88;;;;;;;;;;5093155;28;20023;-70
2023/01/12 09:38:17;;;;;;;10.77;2.03;;;;;;;;;;5093511;28;20024;-71
2023/01/12 09:40:43;;;;;;;10.00;1.45;;;;;;;;;;5092948;28;20015;-71
2023/01/12 09:48:41;;;;;;;7.97;1.35;;;;;;;;;;5093106;28;20491;-70
2023/01/12 09:51:27;;;;;;;11.85;1.90;;;;;;;;;;5091110;28;20027;-71
2023/01/12 09:53:52;;;;;;;10.35;3.10;;;;;;;;;;5091844;28;20032;-72
2023/01/12 09:56:39;;;;;;;5.97;1.08;;;;;;;;;;5092074;28;20031;-70
2023/01/12 09:59:13;;;;;;;8.57;1.75;;;;;;;;;;5092402;28;20099;-73
2023/01/12 10:01:39;;;;;;;8.77;1.30;;;;;;;;;;5092631;28;20027;-72
2023/01/12 10:04:05;;;;;;;13.93;2.17;;;;;;;;;;5091884;28;20032;-71
2023/01/12 10:06:31;;;;;;;9.48;2.63;;;;;;;;;;5092113;28;20094;-71
2023/01/12 10:09:01;;;;;;;13.07;2.30;;;;;;;;;;5091568;28;20017;-73
2023/01/12 10:11:29;;;;;;;11.60;1.75;;;;;;;;;;5092398;28;20507;-72
2023/01/12 10:13:55;;;;;;;8.32;1.00;;;;;;;;;;5090796;28;20491;-70
2023/01/12 10:16:24;;;;;;;10.43;2.58;;;;;;;;;;5090866;28;20073;-71
2023/01/12 10:18:52;;;;;;;14.50;2.70;;;;;;;;;;5090661;28;20024;-71
2023/01/12 10:21:17;;;;;;;11.23;2.72;;;;;;;;;;5091617;28;20411;-71
2023/01/12 10:23:43;;;;;;;13.80;3.53;;;;;;;;;;5091551;28;20018;-72
2023/01/12 10:26:22;;;;;;;14.30;3.28;;;;;;;;;;5090504;28;20031;-72
2023/01/12 10:28:51;;;;;;;14.52;4.68;;;;;;;;;;5090412;28;20012;-72
2023/01/12 10:31:20;;;;;;;17.88;4.63;;;;;;;;;;5091543;28;20030;-72
2023/01/12 10:34:00;;;;;;;16.27;4.63;;;;;;;;;;5091885;28;20106;-74
2023/01/12 10:36:26;;;;;;;19.70;5.82;;;;;;;;;;5091404;28;20103;-74
2023/01/12 10:38:56;;;;;;;20.40;5.88;;;;;;;;;;5091940;28;20512;-75
2023/01/12 10:41:25;;;;;;;29.52;6.90;;;;;;;;;;5091569;28;20024;-74
2023/01/12 10:43:57;;;;;;;29.17;7.60;;;;;;;;;;5090369;28;20034;-75
2023/01/12 10:46:25;;;;;;;32.42;9.88;;;;;;;;;;5090237;28;20111;-73
2023/01/12 10:48:52;;;;;;;36.40;11.52;;;;;;;;;;5091277;28;20020;-73
2023/01/12 10:51:21;;;;;;;20.52;8.40;;;;;;;;;;5090360;28;20032;-74
2023/01/12 10:53:46;;;;;;;21.20;7.00;;;;;;;;;;5091700;28;20024;-72
2023/01/12 10:56:15;;;;;;;26.90;7.57;;;;;;;;;;5091362;28;20023;-72
2023/01/12 10:58:42;;;;;;;21.88;7.55;;;;;;;;;;5091068;28;20020;-73
2023/01/12 11:01:07;;;;;;;41.25;18.83;;;;;;;;;;5089509;28;20391;-73
2023/01/12 11:03:36;;;;;;;29.48;8.13;;;;;;;;;;5091056;28;20008;-72
2023/01/12 11:06:20;;;;;;;21.13;8.02;;;;;;;;;;5091089;28;20023;-72
2023/01/12 11:08:45;;;;;;;30.00;8.07;;;;;;;;;;5091069;28;20473;-72
2023/01/12 11:11:15;;;;;;;26.08;8.50;;;;;;;;;;5091271;28;20016;-71
2023/01/12 11:13:40;;;;;;;25.35;7.22;;;;;;;;;;5090875;28;20077;-72
2023/01/12 11:16:15;;;;;;;24.35;9.68;;;;;;;;;;5092660;28;20020;-72
2023/01/12 11:18:45;;;;;;;22.38;8.10;;;;;;;;;;5096658;28;20016;-73
2023/01/12 11:21:14;;;;;;;25.85;9.40;;;;;;;;;;5095427;28;20063;-72
2023/01/12 11:23:43;;;;;;;19.42;6.38;;;;;;;;;;5095224;28;20034;-72
2023/01/12 11:26:19;;;;;;;22.67;6.68;;;;;;;;;;5094985;28;20024;-73
2023/01/12 11:28:46;;;;;;;23.35;6.05;;;;;;;;;;5095288;28;20024;-73
2023/01/12 11:31:32;;;;;;;26.90;8.77;;;;;;;;;;5095520;28;20036;-72
2023/01/12 11:34:00;;;;;;;19.52;6.82;;;;;;;;;;5096093;28;20476;-72
2023/01/12 11:36:27;;;;;;;18.08;6.55;;;;;;;;;;5095974;28;20027;-73
2023/01/12 11:38:57;;;;;;;19.15;6.85;;;;;;;;;;5094907;28;20024;-73
2023/01/12 11:44:43;;;;;;;21.92;6.38;;;;;;;;;;5094434;28;20051;-73
2023/01/12 11:47:12;;;;;;;18.00;6.63;;;;;;;;;;5094428;28;20016;-72
2023/01/12 11:49:41;;;;;;;18.13;7.22;;;;;;;;;;5093214;28;20024;-74
2023/01/12 11:52:08;;;;;;;23.65;7.22;;;;;;;;;;5094617;28;20095;-73
2023/01/12 11:54:35;;;;;;;35.30;7.70;;;;;;;;;;5095065;28;20044;-72
2023/01/12 11:57:16;;;;;;;16.83;6.93;;;;;;;;;;5093322;28;20020;-72
2023/01/12 12:00:00;;;;;;;17.60;6.75;;;;;;;;;;5094201;28;20031;-73
2023/01/12 12:02:25;;;;;;;16.88;5.47;;;;;;;;;;5093198;28;20081;-72
2023/01/12 12:04:54;;;;;;;20.25;6.35;;;;;;;;;;5093383;28;20032;-72
2023/01/12 12:07:31;;;;;;;19.52;6.43;;;;;;;;;;5092516;28;20522;-72
2023/01/12 12:09:59;;;;;;;18.98;6.00;;;;;;;;;;5092917;28;20030;-71
2023/01/12 12:12:32;;;;;;;18.52;7.15;;;;;;;;;;5093363;28;20024;-73
2023/01/12 12:15:19;;;;;;;29.30;14.50;;;;;;;;;;5094405;28;20044;-74
2023/01/12 12:17:56;;;;;;;17.85;6.38;;;;;;;;;;5094248;28;20016;-72
2023/01/12 12:20:37;;;;;;;17.38;5.60;;;;;;;;;;5094037;28;20539;-72
2023/01/12 12:23:05;;;;;;;18.15;5.70;;;;;;;;;;5094350;28;20060;-73
2023/01/12 12:25:31;;;;;;;22.25;5.53;;;;;;;;;;5093863;28;20037;-72
2023/01/12 12:28:09;;;;;;;13.88;4.60;;;;;;;;;;5093588;28;20024;-73
2023/01/12 12:30:37;;;;;;;16.40;5.65;;;;;;;;;;5094087;28;20059;-73
2023/01/12 12:33:03;;;;;;;19.15;5.15;;;;;;;;;;5093650;28;20024;-73
2023/01/12 12:35:40;;;;;;;14.23;4.70;;;;;;;;;;5092692;28;20016;-73
2023/01/12 12:38:32;;;;;;;23.33;7.28;;;;;;;;;;5093527;28;20022;-72
2023/01/12 12:46:47;;;;;;;9.95;3.38;;;;;;;;;;5093754;28;20035;-74
2023/01/12 12:49:18;;;;;;;15.65;3.83;;;;;;;;;;5092065;28;20380;-73
2023/01/12 12:51:44;;;;;;;14.75;3.80;;;;;;;;;;5092524;28;20365;-73
2023/01/12 12:54:13;;;;;;;15.63;5.03;;;;;;;;;;5094441;28;20016;-73
2023/01/12 12:56:39;;;;;;;14.85;3.95;;;;;;;;;;5092679;28;20027;-74
2023/01/12 12:59:05;;;;;;;10.98;3.78;;;;;;;;;;5093532;28;20016;-73
2023/01/12 13:01:30;;;;;;;12.65;4.28;;;;;;;;;;5091894;28;20068;-71
2023/01/12 13:03:56;;;;;;;11.57;3.58;;;;;;;;;;5092439;28;20028;-73
2023/01/12 13:06:22;;;;;;;10.63;3.25;;;;;;;;;;5093491;28;20032;-73
2023/01/12 13:08:49;;;;;;;16.17;3.75;;;;;;;;;;5093348;28;20022;-73
2023/01/12 13:11:15;;;;;;;15.27;3.78;;;;;;;;;;5091459;28;20465;-72
2023/01/12 13:13:56;;;;;;;20.63;5.80;;;;;;;;;;5093742;28;20016;-72
2023/01/12 13:16:25;;;;;;;11.25;3.55;;;;;;;;;;5091822;28;20035;-73
2023/01/12 13:18:50;;;;;;;9.48;3.30;;;;;;;;;;5091853;28;20043;-72
2023/01/12 13:21:39;;;;;;;15.30;4.05;;;;;;;;;;5093495;28;20456;-72
2023/01/12 13:24:13;;;;;;;9.45;2.65;;;;;;;;;;5080512;28;20051;-71
2023/01/12 13:26:43;;;;;;;11.13;3.20;;;;;;;;;;5092456;28;20104;-74
2023/01/12 13:29:26;;;;;;;11.30;2.88;;;;;;;;;;5090967;28;20063;-72
2023/01/12 13:31:56;;;;;;;10.15;2.80;;;;;;;;;;5091959;28;20466;-73
2023/01/12 13:34:34;;;;;;;13.90;2.95;;;;;;;;;;5093004;28;20122;-72
2023/01/12 13:37:02;;;;;;;9.88;2.63;;;;;;;;;;5091318;28;20024;-71
2023/01/12 13:39:28;;;;;;;10.65;3.03;;;;;;;;;;5089853;28;20017;-72
2023/01/12 13:44:39;;;;;;;22.77;11.80;;;;;;;;;;5092182;28;20073;-72
2023/01/12 13:47:24;;;;;;;5.53;2.78;;;;;;;;;;5090737;28;20411;-73
2023/01/12 13:49:52;;;;;;;6.88;2.30;;;;;;;;;;5091118;28;20028;-71
2023/01/12 13:52:26;;;;;;;10.68;2.40;;;;;;;;;;5091209;28;20063;-73
2023/01/12 13:54:51;;;;;;;8.68;2.80;;;;;;;;;;5092669;28;20572;-71
2023/01/12 13:57:18;;;;;;;8.50;2.72;;;;;;;;;;5092464;28;20084;-74
2023/01/12 14:00:08;;;;;;;12.52;2.95;;;;;;;;;;5092534;28;20437;-72
2023/01/12 14:02:47;;;;;;;9.68;2.60;;;;;;;;;;5110058;27;20459;-72
2023/01/12 14:05:18;;;;;;;10.93;2.80;;;;;;;;;;5110452;28;20128;-74
2023/01/12 14:07:56;;;;;;;9.70;2.80;;;;;;;;;;5109662;28;20027;-71
2023/01/12 14:10:22;;;;;;;12.45;3.10;;;;;;;;;;5108221;28;20052;-72
2023/01/12 14:12:57;;;;;;;11.43;3.88;;;;;;;;;;5109919;28;20065;-72
2023/01/12 14:18:23;;;;;;;7.30;2.50;;;;;;;;;;5109579;28;20043;-72
2023/01/12 14:20:56;;;;;;;8.57;3.42;;;;;;;;;;5109402;28;20396;-73
2023/01/12 14:23:21;;;;;;;8.45;2.58;;;;;;;;;;5107935;28;20031;-71
2023/01/12 14:26:07;;;;;;;8.77;2.85;;;;;;;;;;5109801;28;20012;-73
2023/01/12 14:28:32;;;;;;;12.52;3.00;;;;;;;;;;5098154;28;20040;-72
2023/01/12 14:30:58;;;;;;;7.97;2.63;;;;;;;;;;5107561;28;20016;-72
2023/01/12 14:33:25;;;;;;;6.68;2.30;;;;;;;;;;5108180;28;20054;-72
2023/01/12 14:35:54;;;;;;;13.70;2.67;;;;;;;;;;5109000;28;20069;-72
2023/01/12 14:38:20;;;;;;;10.10;2.28;;;;;;;;;;5109031;28;20016;-71
2023/01/12 14:40:52;;;;;;;6.35;2.40;;;;;;;;;;5108778;28;20028;-72
2023/01/12 14:49:12;;;;;;;9.15;2.60;;;;;;;;;;5109497;28;20058;-71
2023/01/12 14:51:39;;;;;;;7.50;2.53;;;;;;;;;;5105484;28;20411;-71
2023/01/12 14:54:04;;;;;;;11.88;2.72;;;;;;;;;;5107501;28;20502;-74
2023/01/12 14:56:38;;;;;;;8.52;2.83;;;;;;;;;;5108158;28;20099;-72
2023/01/12 14:59:06;;;;;;;9.80;3.47;;;;;;;;;;5109489;28;20016;-72
2023/01/12 15:01:32;;;;;;;10.02;2.38;;;;;;;;;;5108050;28;20066;-72
2023/01/12 15:03:58;;;;;;;7.75;2.40;;;;;;;;;;5107577;28;20460;-72
2023/01/12 15:06:24;;;;;;;6.30;2.75;;;;;;;;;;5106926;28;20073;-71
2023/01/12 15:08:54;;;;;;;8.57;2.45;;;;;;;;;;5108755;28;20034;-72
2023/01/12 15:11:30;;;;;;;7.82;2.00;;;;;;;;;;5106640;28;20020;-72
2023/01/12 15:13:59;;;;;;;7.53;1.92;;;;;;;;;;5094043;28;20032;-71
2023/01/12 15:27:25;;;;;;;7.43;2.22;;;;;;;;;;5095127;28;20145;-73
2023/01/12 15:29:50;;;;;;;5.47;1.90;;;;;;;;;;5094794;28;20016;-71
2023/01/12 15:32:29;;;;;;;11.55;2.75;;;;;;;;;;5094665;28;20016;-74
2023/01/12 15:34:54;;;;;;;6.07;1.65;;;;;;;;;;5094336;28;20089;-72
2023/01/12 15:37:20;;;;;;;8.48;2.30;;;;;;;;;;5094387;28;20464;-71
2023/01/12 15:39:46;;;;;;;8.05;2.30;;;;;;;;;;5094430;28;20069;-71
2023/01/12 15:42:16;;;;;;;5.80;1.77;;;;;;;;;;5094228;28;20449;-71
2023/01/12 15:44:42;;;;;;;10.25;2.08;;;;;;;;;;5094293;28;20020;-72